UAE62P OMDB-YMML
Flight info
| Callsign | UAE62P |
|---|---|
| Flight time | N/A |
| Altitude | 29000 |
| Route | ANVIX L223 TARDI N629 GIDAN P570 EMURU M300 VASTU P895 AKLON/N0506F310 P895 BIKOK M641 KAT N640 ELATI DCT 07S095E/N0500F330 10S098E DCT SAKAB DCT BIBGA DCT ATLOD DCT OPALL/N0482F350 DCT LST DCT SEEMO DCT ISRED DCT DONBU DCT MTG Y53 ALAXO |
| Aircraft | B77W/H-SDE1E2E3FGHIJ2J3J4J5M1RWXY/LB1D1 |
Departure
| Time | N/A |
|---|---|
| Airport | Dubai International Airport (OMDB) |
Arrival
| Time | 2026-05-04 10:02 |
|---|---|
| Airport | Melbourne Airport (YMML) |
| Time | Latitude | Longitude | Altitude | Speed | Heading |
|---|---|---|---|---|---|
| 2026-05-04 09:20 | -30.68977 | 125.54082 | 35244 ft | 488 kts | 128° |
| 2026-05-04 09:21 | -30.83463 | 125.80306 | 35199 ft | 477 kts | 128° |
| 2026-05-04 09:21 | -30.98014 | 126.05997 | 35306 ft | 476 kts | 129° |
| 2026-05-04 09:21 | -31.12895 | 126.31944 | 35423 ft | 487 kts | 129° |
| 2026-05-04 09:21 | -31.28023 | 126.58642 | 35370 ft | 494 kts | 128° |
| 2026-05-04 09:22 | -31.43056 | 126.85331 | 35249 ft | 487 kts | 128° |
| 2026-05-04 09:22 | -31.57550 | 127.11233 | 35209 ft | 477 kts | 128° |
| 2026-05-04 09:22 | -31.86618 | 127.63690 | 35405 ft | 488 kts | 127° |
| 2026-05-04 09:23 | -32.16350 | 128.18134 | 35248 ft | 492 kts | 126° |
| 2026-05-04 09:23 | -32.45271 | 128.71849 | 35278 ft | 482 kts | 125° |
| 2026-05-04 09:25 | -33.58695 | 130.90342 | 35219 ft | 480 kts | 124° |
| 2026-05-04 09:26 | -33.72300 | 131.17451 | 35163 ft | 468 kts | 124° |
| 2026-05-04 09:26 | -33.85601 | 131.44147 | 35239 ft | 466 kts | 124° |
| 2026-05-04 09:26 | -34.13711 | 131.97884 | 35328 ft | 482 kts | 125° |
| 2026-05-04 09:27 | -34.27757 | 132.24893 | 35208 ft | 477 kts | 125° |
| 2026-05-04 09:27 | -34.41659 | 132.51799 | 35133 ft | 466 kts | 125° |
| 2026-05-04 09:27 | -34.69005 | 133.05316 | 35315 ft | 475 kts | 124° |
| 2026-05-04 09:28 | -34.97007 | 133.60997 | 35176 ft | 480 kts | 124° |
| 2026-05-04 09:28 | -35.10684 | 133.88515 | 35102 ft | 469 kts | 124° |
| 2026-05-04 09:28 | -35.23924 | 134.15353 | 35189 ft | 468 kts | 124° |
| 2026-05-04 09:29 | -35.51187 | 134.71293 | 35283 ft | 488 kts | 124° |
| 2026-05-04 09:29 | -35.64948 | 134.99891 | 35135 ft | 483 kts | 123° |
| 2026-05-04 09:29 | -35.76714 | 135.29551 | 35090 ft | 476 kts | 118° |
| 2026-05-04 09:30 | -35.99621 | 135.88209 | 35240 ft | 482 kts | 119° |
| 2026-05-04 09:30 | -36.11338 | 136.18640 | 35256 ft | 495 kts | 119° |
| 2026-05-04 09:30 | -36.23074 | 136.49422 | 35127 ft | 492 kts | 119° |
| 2026-05-04 09:31 | -36.45682 | 137.09537 | 35081 ft | 479 kts | 119° |
| 2026-05-04 09:31 | -36.56917 | 137.39838 | 35183 ft | 488 kts | 119° |
| 2026-05-04 09:31 | -36.68367 | 137.71035 | 35206 ft | 500 kts | 118° |
| 2026-05-04 09:32 | -36.79832 | 138.02621 | 35097 ft | 499 kts | 118° |
| 2026-05-04 09:32 | -36.91093 | 138.33945 | 35012 ft | 489 kts | 118° |
| 2026-05-04 09:34 | -37.72668 | 140.71117 | 35084 ft | 499 kts | 117° |
| 2026-05-04 09:34 | -37.75451 | 140.84809 | 34997 ft | 515 kts | 99° |
| 2026-05-04 09:34 | -37.76123 | 141.03013 | 35003 ft | 519 kts | 96° |
| 2026-05-04 09:35 | -37.78215 | 141.59613 | 34882 ft | 504 kts | 96° |
| 2026-05-04 09:35 | -37.79389 | 141.94673 | 34993 ft | 509 kts | 95° |
| 2026-05-04 09:35 | -37.80481 | 142.30714 | 35024 ft | 515 kts | 94° |
| 2026-05-04 09:37 | -37.81484 | 142.68955 | 32122 ft | 467 kts | 94° |
| 2026-05-04 09:37 | -37.81584 | 142.73027 | 31345 ft | 461 kts | 95° |
| 2026-05-04 09:38 | -37.81681 | 142.76994 | 30616 ft | 454 kts | 95° |
| 2026-05-04 09:38 | -37.81776 | 142.80955 | 29899 ft | 447 kts | 95° |
| 2026-05-04 09:38 | -37.81869 | 142.84859 | 29064 ft | 440 kts | 95° |
| 2026-05-04 09:38 | -37.81960 | 142.88697 | 28250 ft | 434 kts | 94° |
| 2026-05-04 09:39 | -37.82048 | 142.92482 | 27447 ft | 428 kts | 94° |
| 2026-05-04 09:39 | -37.82134 | 142.96223 | 26671 ft | 423 kts | 94° |
| 2026-05-04 09:39 | -37.82218 | 142.99920 | 25916 ft | 418 kts | 93° |
| 2026-05-04 09:39 | -37.82299 | 143.03569 | 25194 ft | 412 kts | 93° |
| 2026-05-04 09:40 | -37.82377 | 143.07109 | 24616 ft | 402 kts | 92° |
| 2026-05-04 09:40 | -37.82451 | 143.10568 | 24216 ft | 384 kts | 92° |
| 2026-05-04 09:40 | -37.82521 | 143.13877 | 23834 ft | 370 kts | 92° |
| 2026-05-04 09:40 | -37.82589 | 143.17124 | 23505 ft | 371 kts | 92° |
| 2026-05-04 09:41 | -37.82658 | 143.20409 | 23091 ft | 377 kts | 92° |
| 2026-05-04 09:42 | -37.83122 | 143.44037 | 19036 ft | 380 kts | 92° |
| 2026-05-04 09:43 | -37.83183 | 143.47356 | 18714 ft | 376 kts | 92° |
| 2026-05-04 09:43 | -37.83243 | 143.50654 | 18331 ft | 374 kts | 92° |
| 2026-05-04 09:43 | -37.83302 | 143.53937 | 17904 ft | 373 kts | 92° |
| 2026-05-04 09:43 | -37.83360 | 143.57213 | 17477 ft | 372 kts | 92° |
| 2026-05-04 09:44 | -37.83416 | 143.60475 | 17086 ft | 369 kts | 92° |
| 2026-05-04 09:44 | -37.83471 | 143.63703 | 16684 ft | 367 kts | 91° |
| 2026-05-04 09:44 | -37.83525 | 143.66882 | 16304 ft | 365 kts | 91° |
| 2026-05-04 09:46 | -37.83874 | 143.89044 | 13674 ft | 355 kts | 91° |
| 2026-05-04 09:46 | -37.83920 | 143.92160 | 13263 ft | 353 kts | 91° |
| 2026-05-04 09:46 | -37.83964 | 143.95262 | 12891 ft | 352 kts | 91° |
| 2026-05-04 09:47 | -37.83989 | 143.98305 | 12511 ft | 350 kts | 88° |
| 2026-05-04 09:47 | -37.83760 | 144.01363 | 12114 ft | 349 kts | 81° |
| 2026-05-04 09:49 | -37.81184 | 144.22180 | 9681 ft | 337 kts | 81° |
| 2026-05-04 09:49 | -37.80843 | 144.25102 | 9297 ft | 335 kts | 81° |
| 2026-05-04 09:49 | -37.80503 | 144.28014 | 8933 ft | 334 kts | 81° |
| 2026-05-04 09:51 | -37.78608 | 144.44101 | 8449 ft | 302 kts | 81° |
| 2026-05-04 09:51 | -37.78567 | 144.46742 | 8274 ft | 305 kts | 96° |
| 2026-05-04 09:51 | -37.78893 | 144.49410 | 7901 ft | 309 kts | 101° |
| 2026-05-04 09:51 | -37.79300 | 144.52078 | 7536 ft | 309 kts | 101° |
| 2026-05-04 09:52 | -37.79693 | 144.54735 | 7178 ft | 309 kts | 101° |
| 2026-05-04 09:52 | -37.80053 | 144.57371 | 6830 ft | 308 kts | 99° |
| 2026-05-04 09:52 | -37.80398 | 144.60046 | 6480 ft | 308 kts | 99° |
| 2026-05-04 09:52 | -37.80733 | 144.62702 | 6256 ft | 303 kts | 99° |
| 2026-05-04 09:53 | -37.81242 | 144.65207 | 6101 ft | 287 kts | 119° |
| 2026-05-04 09:53 | -37.82293 | 144.67281 | 6026 ft | 278 kts | 130° |
| 2026-05-04 09:53 | -37.83461 | 144.69205 | 6018 ft | 277 kts | 131° |
| 2026-05-04 09:53 | -37.84648 | 144.71125 | 6058 ft | 277 kts | 131° |
| 2026-05-04 09:54 | -37.85841 | 144.73043 | 6049 ft | 280 kts | 131° |
| 2026-05-04 09:54 | -37.87062 | 144.74991 | 6018 ft | 283 kts | 131° |
| 2026-05-04 09:54 | -37.88289 | 144.76943 | 6016 ft | 283 kts | 131° |
| 2026-05-04 09:54 | -37.89487 | 144.78889 | 5966 ft | 275 kts | 124° |
| 2026-05-04 09:55 | -37.90007 | 144.81088 | 5765 ft | 252 kts | 84° |
| 2026-05-04 09:55 | -37.89435 | 144.82980 | 5493 ft | 217 kts | 41° |
| 2026-05-04 09:55 | -37.88317 | 144.84052 | 4932 ft | 198 kts | 20° |
| 2026-05-04 09:55 | -37.87119 | 144.84817 | 4327 ft | 188 kts | 15° |
| 2026-05-04 09:56 | -37.85951 | 144.85484 | 3748 ft | 180 kts | 13° |
| 2026-05-04 09:56 | -37.84829 | 144.86096 | 3528 ft | 178 kts | 12° |
| 2026-05-04 09:56 | -37.83672 | 144.86725 | 3307 ft | 181 kts | 11° |
| 2026-05-04 09:56 | -37.82530 | 144.86836 | 3078 ft | 157 kts | 337° |
| 2026-05-04 09:57 | -37.81439 | 144.86549 | 2883 ft | 164 kts | 340° |
| 2026-05-04 09:57 | -37.80310 | 144.86319 | 2662 ft | 164 kts | 342° |
| 2026-05-04 09:57 | -37.79200 | 144.86104 | 2445 ft | 160 kts | 342° |
| 2026-05-04 09:57 | -37.78103 | 144.85893 | 2218 ft | 159 kts | 342° |
| 2026-05-04 09:58 | -37.77023 | 144.85686 | 2025 ft | 158 kts | 343° |
| 2026-05-04 09:58 | -37.75941 | 144.85484 | 1817 ft | 155 kts | 343° |
| 2026-05-04 09:58 | -37.74924 | 144.85294 | 1579 ft | 141 kts | 343° |
| 2026-05-04 10:00 | -37.68492 | 144.84077 | 381 ft | 133 kts | 352° |
| 2026-05-04 10:00 | -37.67677 | 144.83938 | 372 ft | 100 kts | 351° |
| 2026-05-04 10:02 | -37.66805 | 144.83931 | 395 ft | 1 kts | 21° |
| 2026-05-04 10:04 | -37.66693 | 144.84432 | 398 ft | 7 kts | 141° |
| 2026-05-04 10:04 | -37.66739 | 144.84448 | 399 ft | 7 kts | 170° |
| 2026-05-04 10:04 | -37.66772 | 144.84455 | 396 ft | 0 kts | 171° |